createdAt,value
2022-07-25T00:01:46.784Z,96901.66
2022-07-25T00:04:14.504Z,96903.75
2022-07-25T00:06:42.198Z,96896.88
2022-07-25T00:09:09.565Z,96900.88
2022-07-25T00:11:36.235Z,96892.31
2022-07-25T00:14:03.358Z,96888.81
2022-07-25T00:16:30.468Z,96879.03
2022-07-25T00:18:57.291Z,96881.16
2022-07-25T00:21:23.951Z,96877.75
2022-07-25T00:23:50.718Z,96871.28
2022-07-25T00:26:17.380Z,96864.25
2022-07-25T00:28:44.354Z,96867.69
2022-07-25T00:31:11.300Z,96874.00
2022-07-25T00:33:39.861Z,96873.94
2022-07-25T00:36:08.099Z,96869.63
2022-07-25T00:38:35.209Z,96877.81
2022-07-25T00:41:02.914Z,96874.88
2022-07-25T00:43:29.633Z,96864.28
2022-07-25T00:45:58.749Z,96870.66
2022-07-25T00:48:29.723Z,96874.22
2022-07-25T00:50:57.086Z,96873.59
2022-07-25T00:53:24.550Z,96872.03
2022-07-25T00:55:52.201Z,96871.91
2022-07-25T00:58:18.982Z,96873.41
2022-07-25T01:00:46.115Z,96867.56
2022-07-25T01:03:13.004Z,96864.16
2022-07-25T01:05:39.790Z,96862.69
2022-07-25T01:08:06.603Z,96855.50
2022-07-25T01:10:34.006Z,96844.75
2022-07-25T01:13:01.102Z,96848.09
2022-07-25T01:15:28.362Z,96841.84
2022-07-25T01:17:55.210Z,96845.31
2022-07-25T01:20:23.819Z,96843.75
2022-07-25T01:22:51.150Z,96839.50
2022-07-25T01:25:17.871Z,96829.81
2022-07-25T01:27:44.669Z,96829.66
2022-07-25T01:30:13.867Z,96835.00
2022-07-25T01:32:41.024Z,96837.69
2022-07-25T01:35:08.570Z,96836.38
2022-07-25T01:37:35.635Z,96832.06
2022-07-25T01:40:04.459Z,96822.91
2022-07-25T01:42:31.191Z,96823.66
2022-07-25T01:44:58.450Z,96831.81
2022-07-25T01:47:25.534Z,96828.28
2022-07-25T01:49:52.504Z,96824.78
2022-07-25T01:52:19.213Z,96827.56
2022-07-25T01:54:45.988Z,96833.88
2022-07-25T01:57:15.060Z,96830.34
2022-07-25T01:59:43.601Z,96833.69
2022-07-25T02:02:10.890Z,96820.44
2022-07-25T02:04:37.780Z,96822.09
2022-07-25T02:07:06.198Z,96816.66
2022-07-25T02:09:33.049Z,96812.94
2022-07-25T02:11:59.677Z,96810.56
2022-07-25T02:14:26.545Z,96807.31
2022-07-25T02:16:53.929Z,96798.97
2022-07-25T02:19:20.777Z,96807.34
2022-07-25T02:21:47.553Z,96805.19
2022-07-25T02:24:14.393Z,96804.22
2022-07-25T02:26:41.088Z,96806.69
2022-07-25T02:29:07.938Z,96812.69
2022-07-25T02:31:34.610Z,96808.44
2022-07-25T02:34:01.877Z,96800.59
2022-07-25T02:36:28.622Z,96802.56
2022-07-25T02:38:55.557Z,96802.53
2022-07-25T02:41:22.254Z,96807.31
2022-07-25T02:43:48.998Z,96801.81
2022-07-25T02:46:15.722Z,96797.97
2022-07-25T02:48:42.559Z,96801.31
2022-07-25T02:51:09.297Z,96794.78
2022-07-25T02:53:55.897Z,96793.88
2022-07-25T02:56:23.063Z,96789.16
2022-07-25T02:58:50.250Z,96792.72
2022-07-25T03:01:17.140Z,96793.38
2022-07-25T03:03:44.028Z,96801.31
2022-07-25T03:06:10.850Z,96793.38
2022-07-25T03:08:37.654Z,96795.34
2022-07-25T03:11:04.786Z,96793.16
2022-07-25T03:13:33.193Z,96800.78
2022-07-25T03:16:00.287Z,96798.78
2022-07-25T03:18:26.999Z,96787.31
2022-07-25T03:20:53.740Z,96786.38
2022-07-25T03:23:20.419Z,96794.59
2022-07-25T03:25:47.138Z,96791.63
2022-07-25T03:28:13.787Z,96792.84
2022-07-25T03:30:40.567Z,96783.72
2022-07-25T03:33:07.269Z,96792.72
2022-07-25T03:35:35.185Z,96789.88
2022-07-25T03:38:02.311Z,96780.25
2022-07-25T03:40:29.250Z,96778.00
2022-07-25T03:42:55.978Z,96774.50
2022-07-25T03:45:22.761Z,96775.50
2022-07-25T03:47:50.106Z,96779.16
2022-07-25T03:50:17.003Z,96777.16
2022-07-25T03:52:43.773Z,96774.31
2022-07-25T03:55:11.560Z,96771.59
2022-07-25T03:57:39.032Z,96772.31
2022-07-25T04:00:08.647Z,96768.81
2022-07-25T04:02:37.694Z,96768.16
2022-07-25T04:05:08.112Z,96763.75
2022-07-25T04:07:34.911Z,96768.44
2022-07-25T04:10:01.913Z,96767.38
2022-07-25T04:12:28.591Z,96766.66
2022-07-25T04:14:55.286Z,96763.72
2022-07-25T04:17:22.107Z,96758.16
2022-07-25T04:19:51.004Z,96759.75
2022-07-25T04:22:17.722Z,96757.84
2022-07-25T04:24:44.489Z,96758.56
2022-07-25T04:27:11.231Z,96768.69
2022-07-25T04:29:37.966Z,96759.41
2022-07-25T04:32:05.417Z,96764.97
2022-07-25T04:34:32.191Z,96756.72
2022-07-25T04:36:58.927Z,96760.19
2022-07-25T04:39:25.580Z,96757.34
2022-07-25T04:41:52.288Z,96761.72
2022-07-25T04:44:18.935Z,96762.44
2022-07-25T04:46:45.625Z,96767.31
2022-07-25T04:49:12.321Z,96754.25
2022-07-25T04:51:39.108Z,96758.56
2022-07-25T04:54:06.434Z,96757.84
2022-07-25T04:56:33.382Z,96757.28
2022-07-25T04:59:04.816Z,96762.13
2022-07-25T05:01:34.436Z,96757.19
2022-07-25T05:04:01.265Z,96759.34
2022-07-25T05:06:28.048Z,96760.16
2022-07-25T05:08:55.494Z,96764.47
2022-07-25T05:11:22.337Z,96761.19
2022-07-25T05:13:48.992Z,96760.03
2022-07-25T05:16:15.780Z,96762.25
2022-07-25T05:18:42.571Z,96756.09
2022-07-25T05:21:12.664Z,96758.22
2022-07-25T05:23:39.783Z,96755.66
2022-07-25T05:26:06.463Z,96761.97
2022-07-25T05:28:33.259Z,96749.53
2022-07-25T05:31:00.239Z,96757.91
2022-07-25T05:33:27.139Z,96753.88
2022-07-25T05:35:53.875Z,96756.81
2022-07-25T05:38:20.773Z,96759.03
2022-07-25T05:40:48.092Z,96759.22
2022-07-25T05:43:14.893Z,96761.47
2022-07-25T05:45:41.631Z,96762.94
2022-07-25T05:48:08.398Z,96764.44
2022-07-25T05:50:37.040Z,96760.31
2022-07-25T05:53:03.784Z,96754.25
2022-07-25T05:55:30.486Z,96754.38
2022-07-25T05:57:57.161Z,96757.97
2022-07-25T06:00:24.287Z,96762.19
2022-07-25T06:02:51.094Z,96757.44
2022-07-25T06:05:17.847Z,96761.75
2022-07-25T06:07:44.571Z,96767.47
2022-07-25T06:10:11.355Z,96765.50
2022-07-25T06:12:38.128Z,96757.25
2022-07-25T06:15:05.989Z,96759.41
2022-07-25T06:17:33.091Z,96752.56
2022-07-25T06:19:59.864Z,96755.47
2022-07-25T06:22:26.609Z,96757.66
2022-07-25T06:24:53.258Z,96761.25
2022-07-25T06:27:21.622Z,96757.19
2022-07-25T06:29:49.887Z,96762.13
2022-07-25T06:32:16.575Z,96754.53
2022-07-25T06:34:43.655Z,96756.00
2022-07-25T06:37:10.444Z,96762.41
2022-07-25T06:39:37.194Z,96760.41
2022-07-25T06:42:04.576Z,96769.53
2022-07-25T06:44:35.412Z,96770.31
2022-07-25T06:47:03.162Z,96762.75
2022-07-25T06:49:29.849Z,96762.84
2022-07-25T06:51:56.632Z,96761.53
2022-07-25T06:54:23.650Z,96760.31
2022-07-25T06:56:50.348Z,96764.63
2022-07-25T06:59:17.099Z,96755.00
2022-07-25T07:01:45.962Z,96759.34
2022-07-25T07:04:16.511Z,96756.03
2022-07-25T07:06:43.867Z,96752.09
2022-07-25T07:09:10.706Z,96756.44
2022-07-25T07:11:37.462Z,96741.94
2022-07-25T07:14:04.982Z,96753.28
2022-07-25T07:16:32.103Z,96760.41
2022-07-25T07:18:58.856Z,96762.72
2022-07-25T07:21:25.493Z,96764.91
2022-07-25T07:23:53.640Z,96767.88
2022-07-25T07:26:21.500Z,96762.50
2022-07-25T07:28:48.377Z,96758.47
2022-07-25T07:31:18.316Z,96753.00
2022-07-25T07:33:45.721Z,96756.72
2022-07-25T07:36:12.536Z,96753.28
2022-07-25T07:38:39.944Z,96749.19
2022-07-25T07:41:06.652Z,96750.66
2022-07-25T07:43:33.339Z,96740.97
2022-07-25T07:46:00.973Z,96736.81
2022-07-25T07:48:29.290Z,96743.88
2022-07-25T07:50:56.111Z,96743.25
2022-07-25T07:53:22.941Z,96746.13
2022-07-25T07:55:55.251Z,96739.88
2022-07-25T07:58:22.164Z,96739.97
2022-07-25T08:00:50.963Z,96733.69
2022-07-25T08:03:19.529Z,96744.25
2022-07-25T08:05:48.932Z,96740.81
2022-07-25T08:08:16.242Z,96738.03
2022-07-25T08:10:46.550Z,96745.81
2022-07-25T08:13:15.896Z,96733.94
2022-07-25T08:15:44.341Z,96741.66
2022-07-25T08:18:17.355Z,96738.91
2022-07-25T08:20:48.634Z,96736.13
2022-07-25T08:23:15.496Z,96738.94
2022-07-25T08:25:42.771Z,96744.56
2022-07-25T08:28:09.573Z,96746.72
2022-07-25T08:30:37.443Z,96739.03
2022-07-25T08:33:07.340Z,96734.84
2022-07-25T08:35:34.808Z,96743.97
2022-07-25T08:38:02.746Z,96741.88
2022-07-25T08:40:30.544Z,96744.69
2022-07-25T08:42:58.510Z,96743.31
2022-07-25T08:45:26.796Z,96736.28
2022-07-25T08:47:54.666Z,96739.78
2022-07-25T08:50:25.002Z,96744.03
2022-07-25T08:53:04.587Z,96742.63
2022-07-25T08:55:37.148Z,96744.75
2022-07-25T08:58:03.860Z,96748.97
2022-07-25T09:00:30.662Z,96746.16
2022-07-25T09:03:03.502Z,96746.16
2022-07-25T09:05:32.058Z,96744.06
2022-07-25T09:08:17.474Z,96758.09
2022-07-25T09:10:50.242Z,96747.56
2022-07-25T09:13:21.578Z,96748.97
2022-07-25T09:15:53.832Z,96751.78
2022-07-25T09:18:25.311Z,96758.78
2022-07-25T09:20:54.325Z,96754.56
2022-07-25T09:23:38.162Z,96771.38
2022-07-25T09:26:11.554Z,96764.38
2022-07-25T09:28:45.291Z,96765.09
2022-07-25T09:31:13.483Z,96769.31
2022-07-25T09:33:56.469Z,96768.59
2022-07-25T09:36:23.868Z,96766.50
2022-07-25T09:38:57.794Z,96776.31
2022-07-25T09:41:41.211Z,96776.31
2022-07-25T09:44:17.886Z,96768.59
2022-07-25T09:46:45.577Z,96765.06
2022-07-25T09:49:14.685Z,96767.19
2022-07-25T09:51:42.324Z,96775.59
2022-07-25T09:54:09.540Z,96793.84
2022-07-25T09:56:36.645Z,96788.91
2022-07-25T09:59:04.983Z,96793.84
2022-07-25T10:01:37.300Z,96794.53
2022-07-25T10:04:14.715Z,96799.44
2022-07-25T10:06:53.728Z,96788.22
2022-07-25T10:09:20.751Z,96778.38
2022-07-25T10:12:07.942Z,96776.97
2022-07-25T10:14:35.455Z,96774.16
2022-07-25T10:17:02.358Z,96776.25
2022-07-25T10:19:50.187Z,96765.72
2022-07-25T10:22:29.624Z,96760.09
2022-07-25T10:25:19.692Z,96758.69
2022-07-25T10:27:50.960Z,96750.25
2022-07-25T10:30:23.645Z,96758.66
2022-07-25T10:32:57.671Z,96768.50
2022-07-25T10:35:26.034Z,96749.47
2022-07-25T10:37:54.308Z,96745.22
2022-07-25T10:40:43.452Z,96750.06
2022-07-25T10:43:19.943Z,96750.03
2022-07-25T10:45:55.532Z,96755.59
2022-07-25T10:48:23.157Z,96752.72
2022-07-25T10:50:59.117Z,96751.28
2022-07-25T10:53:34.148Z,96740.00
2022-07-25T10:56:21.171Z,96745.56
2022-07-25T10:58:52.251Z,96753.28
2022-07-25T11:01:24.047Z,96760.34
2022-07-25T11:03:52.399Z,96755.41
2022-07-25T11:06:30.016Z,96752.59
2022-07-25T11:08:57.901Z,96765.22
2022-07-25T11:11:38.786Z,96775.06
2022-07-25T11:14:06.663Z,96776.44
2022-07-25T11:16:33.445Z,96773.59
2022-07-25T11:19:00.193Z,96781.31
2022-07-25T11:21:26.895Z,96773.56
2022-07-25T11:23:53.843Z,96764.34
2022-07-25T11:26:20.883Z,96765.00
2022-07-25T11:28:49.210Z,96764.25
2022-07-25T11:31:17.752Z,96769.81
2022-07-25T11:33:47.513Z,96766.31
2022-07-25T11:36:14.475Z,96767.66
2022-07-25T11:38:42.239Z,96754.97
2022-07-25T11:41:09.038Z,96767.59
2022-07-25T11:43:35.750Z,96767.50
2022-07-25T11:46:06.619Z,96754.78
2022-07-25T11:48:39.450Z,96768.81
2022-07-25T11:51:18.104Z,96773.72
2022-07-25T11:53:48.490Z,96794.81
2022-07-25T11:56:40.790Z,96784.91
2022-07-25T11:59:02.150Z,96781.44
2022-07-25T12:01:37.386Z,96785.75
2022-07-25T12:04:16.011Z,96784.34
2022-07-25T12:06:45.023Z,96777.34
2022-07-25T12:09:21.393Z,96782.25
2022-07-25T12:11:49.285Z,96780.88
2022-07-25T12:14:16.266Z,96778.75
2022-07-25T12:16:43.109Z,96777.34
2022-07-25T12:19:18.979Z,96774.56
2022-07-25T12:21:45.996Z,96783.06
2022-07-25T12:24:12.732Z,96787.28
2022-07-25T12:26:39.459Z,96783.13
2022-07-25T12:29:06.362Z,96779.66
2022-07-25T12:31:33.382Z,96798.66
2022-07-25T12:34:00.391Z,96789.53
2022-07-25T12:36:27.139Z,96793.06
2022-07-25T12:38:53.811Z,96776.88
2022-07-25T12:41:22.804Z,96788.84
2022-07-25T12:43:49.830Z,96786.00
2022-07-25T12:46:16.916Z,96784.59
2022-07-25T12:48:44.207Z,96783.91
2022-07-25T12:51:11.115Z,96783.19
2022-07-25T12:53:42.325Z,96791.66
2022-07-25T12:56:09.798Z,96782.47
2022-07-25T12:58:37.088Z,96781.06
2022-07-25T13:01:05.752Z,96791.59
2022-07-25T13:03:32.656Z,96788.03
2022-07-25T13:05:59.423Z,96778.88
2022-07-25T13:08:26.111Z,96774.59
2022-07-25T13:10:52.876Z,96777.41
2022-07-25T13:13:19.528Z,96778.84
2022-07-25T13:15:46.434Z,96777.41
2022-07-25T13:18:13.270Z,96781.59
2022-07-25T13:20:39.976Z,96771.69
2022-07-25T13:23:06.688Z,96776.63
2022-07-25T13:25:34.296Z,96769.59
2022-07-25T13:28:04.105Z,96774.50
2022-07-25T13:30:37.726Z,96768.81
2022-07-25T13:33:04.914Z,96770.91
2022-07-25T13:35:38.169Z,96771.59
2022-07-25T13:38:05.759Z,96767.31
2022-07-25T13:40:32.494Z,96761.69
2022-07-25T13:42:59.267Z,96779.28
2022-07-25T13:45:26.048Z,96769.41
2022-07-25T13:48:12.031Z,96777.84
2022-07-25T13:50:39.835Z,96771.44
2022-07-25T13:53:06.989Z,96768.63
2022-07-25T13:55:34.067Z,96773.56
2022-07-25T13:58:00.947Z,96778.44
2022-07-25T14:00:27.884Z,96784.06
2022-07-25T14:02:54.522Z,96786.88
2022-07-25T14:05:21.296Z,96782.72
2022-07-25T14:07:48.054Z,96781.28
2022-07-25T14:10:14.822Z,96771.44
2022-07-25T14:12:41.540Z,96774.97
2022-07-25T14:15:08.803Z,96774.22
2022-07-25T14:17:35.568Z,96774.88
2022-07-25T14:20:03.769Z,96781.22
2022-07-25T14:22:30.431Z,96782.59
2022-07-25T14:24:57.220Z,96786.81
2022-07-25T14:27:24.512Z,96791.75
2022-07-25T14:29:51.191Z,96778.41
2022-07-25T14:32:17.848Z,96774.84
2022-07-25T14:34:44.841Z,96781.13
2022-07-25T14:37:12.037Z,96780.44
2022-07-25T14:39:38.837Z,96792.41
2022-07-25T14:42:06.569Z,96797.38
2022-07-25T14:44:33.743Z,96800.28
2022-07-25T14:47:00.750Z,96789.75
2022-07-25T14:49:30.066Z,96789.03
2022-07-25T14:51:57.828Z,96799.63
2022-07-25T14:54:29.035Z,96805.25
2022-07-25T14:56:56.742Z,96798.19
2022-07-25T14:59:25.272Z,96788.31
2022-07-25T15:01:53.138Z,96788.31
2022-07-25T15:04:22.055Z,96791.13
2022-07-25T15:06:49.093Z,96791.13
2022-07-25T15:09:16.276Z,96797.50
2022-07-25T15:11:43.007Z,96797.50
2022-07-25T15:14:09.693Z,96796.78
2022-07-25T15:16:37.439Z,96795.41
2022-07-25T15:19:16.518Z,96803.19
2022-07-25T15:21:43.841Z,96803.13
2022-07-25T15:24:10.531Z,96797.53
2022-07-25T15:26:37.451Z,96803.19
2022-07-25T15:29:08.060Z,96814.50
2022-07-25T15:31:38.555Z,96801.91
2022-07-25T15:34:05.270Z,96801.09
2022-07-25T15:36:31.946Z,96808.84
2022-07-25T15:38:58.644Z,96810.25
2022-07-25T15:41:26.547Z,96814.47
2022-07-25T15:43:53.407Z,96803.94
2022-07-25T15:46:20.229Z,96806.03
2022-07-25T15:48:47.041Z,96820.09
2022-07-25T15:51:16.603Z,96817.28
2022-07-25T15:53:43.567Z,96815.81
2022-07-25T15:56:10.898Z,96812.25
2022-07-25T15:58:37.628Z,96819.25
2022-07-25T16:01:04.485Z,96807.94
2022-07-25T16:03:31.299Z,96807.97
2022-07-25T16:05:58.882Z,96809.38
2022-07-25T16:08:25.691Z,96811.47
2022-07-25T16:10:52.840Z,96815.63
2022-07-25T16:13:19.578Z,96817.78
2022-07-25T16:15:46.362Z,96813.63
2022-07-25T16:18:13.150Z,96808.00
2022-07-25T16:20:39.842Z,96829.84
2022-07-25T16:23:06.769Z,96812.34
2022-07-25T16:25:33.439Z,96810.91
2022-07-25T16:28:00.233Z,96816.50
2022-07-25T16:30:27.369Z,96820.03
2022-07-25T16:32:54.109Z,96815.09
2022-07-25T16:35:20.938Z,96811.47
2022-07-25T16:37:48.121Z,96815.69
2022-07-25T16:40:15.109Z,96824.81
2022-07-25T16:42:42.343Z,96826.88
2022-07-25T16:45:10.235Z,96825.50
2022-07-25T16:47:37.231Z,96834.72
2022-07-25T16:50:04.318Z,96831.25
2022-07-25T16:52:31.038Z,96822.03
2022-07-25T16:54:57.683Z,96825.53
2022-07-25T16:57:24.889Z,96823.34
2022-07-25T16:59:53.342Z,96836.72
2022-07-25T17:02:22.950Z,96824.72
2022-07-25T17:04:53.045Z,96835.28
2022-07-25T17:07:19.778Z,96828.97
2022-07-25T17:09:46.495Z,96825.47
2022-07-25T17:12:13.212Z,96831.84
2022-07-25T17:14:39.999Z,96833.94
2022-07-25T17:17:06.746Z,96836.03
2022-07-25T17:19:36.335Z,96848.03
2022-07-25T17:22:02.976Z,96845.94
2022-07-25T17:24:29.722Z,96850.09
2022-07-25T17:26:56.435Z,96841.66
2022-07-25T17:29:23.187Z,96857.91
2022-07-25T17:31:49.827Z,96860.84
2022-07-25T17:34:16.614Z,96875.59
2022-07-25T17:36:43.546Z,96861.56
2022-07-25T17:39:11.764Z,96873.59
2022-07-25T17:41:38.494Z,96872.25
2022-07-25T17:44:09.956Z,96871.63
2022-07-25T17:46:38.504Z,96873.81
2022-07-25T17:49:05.316Z,96876.59
2022-07-25T17:51:32.022Z,96883.66
2022-07-25T17:53:58.770Z,96881.59
2022-07-25T17:56:25.702Z,96895.69
2022-07-25T17:58:52.496Z,96885.94
2022-07-25T18:01:19.357Z,96892.28
2022-07-25T18:03:47.562Z,96888.75
2022-07-25T18:06:14.787Z,96888.06
2022-07-25T18:08:41.590Z,96897.22
2022-07-25T18:11:08.374Z,96895.19
2022-07-25T18:13:35.349Z,96894.50
2022-07-25T18:16:02.249Z,96902.22
2022-07-25T18:18:29.445Z,96905.06
2022-07-25T18:20:56.141Z,96894.53
2022-07-25T18:23:24.257Z,96903.69
2022-07-25T18:25:52.089Z,96894.63
2022-07-25T18:28:19.047Z,96896.75
2022-07-25T18:30:45.796Z,96889.03
2022-07-25T18:33:12.443Z,96891.91
2022-07-25T18:35:39.195Z,96898.94
2022-07-25T18:38:05.941Z,96892.59
2022-07-25T18:40:32.633Z,96892.56
2022-07-25T18:42:59.340Z,96889.75
2022-07-25T18:45:26.070Z,96891.16
2022-07-25T18:47:53.476Z,96891.84
2022-07-25T18:50:20.390Z,96886.22
2022-07-25T18:52:47.252Z,96882.00
2022-07-25T18:55:13.953Z,96877.06
2022-07-25T18:57:40.604Z,96888.34
2022-07-25T19:00:10.852Z,96889.06
2022-07-25T19:02:37.672Z,96891.88
2022-07-25T19:05:05.613Z,96887.00
2022-07-25T19:07:33.429Z,96894.78
2022-07-25T19:10:00.353Z,96884.97
2022-07-25T19:12:27.425Z,96897.63
2022-07-25T19:14:54.712Z,96901.88
2022-07-25T19:17:21.511Z,96895.53
2022-07-25T19:19:48.207Z,96909.63
2022-07-25T19:22:14.999Z,96912.41
2022-07-25T19:24:42.339Z,96912.41
2022-07-25T19:27:09.719Z,96915.91
2022-07-25T19:29:40.034Z,96914.53
2022-07-25T19:32:07.174Z,96925.75
2022-07-25T19:34:33.963Z,96925.69
2022-07-25T19:37:00.826Z,96927.78
2022-07-25T19:39:27.548Z,96932.69
2022-07-25T19:41:54.355Z,96936.19
2022-07-25T19:44:21.246Z,96943.19
2022-07-25T19:46:49.527Z,96949.50
2022-07-25T19:49:16.277Z,96942.47
2022-07-25T19:51:43.057Z,96943.84
2022-07-25T19:54:11.208Z,96952.19
2022-07-25T19:56:38.387Z,96959.25
2022-07-25T19:59:05.557Z,96973.25
2022-07-25T20:01:36.431Z,96966.94
2022-07-25T20:04:05.360Z,96969.03
2022-07-25T20:06:32.578Z,96981.63
2022-07-25T20:08:59.305Z,96973.22
2022-07-25T20:11:25.979Z,96976.72
2022-07-25T20:13:54.239Z,96978.81
2022-07-25T20:16:21.117Z,96981.56
2022-07-25T20:18:48.042Z,96996.22
2022-07-25T20:21:17.390Z,97006.72
2022-07-25T20:23:45.144Z,97006.03
2022-07-25T20:26:12.310Z,97013.69
2022-07-25T20:28:39.192Z,97029.06
2022-07-25T20:31:06.293Z,97021.97
2022-07-25T20:33:33.066Z,97023.22
2022-07-25T20:36:00.032Z,97030.91
2022-07-25T20:38:32.290Z,97026.06
2022-07-25T20:40:59.890Z,97030.22
2022-07-25T20:43:27.170Z,97028.13
2022-07-25T20:45:54.013Z,97031.66
2022-07-25T20:48:20.765Z,97031.66
2022-07-25T20:50:47.442Z,97031.66
2022-07-25T20:53:14.141Z,97040.03
2022-07-25T20:55:40.867Z,97042.88
2022-07-25T20:58:07.719Z,97057.66
2022-07-25T21:00:34.936Z,97060.41
2022-07-25T21:03:02.688Z,97056.91
2022-07-25T21:05:29.723Z,97063.94
2022-07-25T21:07:56.730Z,97070.91
2022-07-25T21:10:23.616Z,97080.75
2022-07-25T21:12:50.372Z,97082.81
2022-07-25T21:15:17.490Z,97088.38
2022-07-25T21:17:44.254Z,97100.22
2022-07-25T21:20:12.505Z,97100.16
2022-07-25T21:22:40.047Z,97100.06
2022-07-25T21:25:07.392Z,97106.25
2022-07-25T21:27:34.423Z,97109.09
2022-07-25T21:30:01.240Z,97107.06
2022-07-25T21:32:28.053Z,97112.66
2022-07-25T21:34:54.883Z,97111.81
2022-07-25T21:37:21.606Z,97106.09
2022-07-25T21:39:48.351Z,97108.94
2022-07-25T21:42:15.255Z,97103.41
2022-07-25T21:44:43.580Z,97100.59
2022-07-25T21:47:10.860Z,97099.91
2022-07-25T21:49:56.625Z,97102.72
2022-07-25T21:52:34.376Z,97112.50
2022-07-25T21:55:02.470Z,97121.63
2022-07-25T21:57:29.211Z,97123.75
2022-07-25T21:59:55.970Z,97123.00
2022-07-25T22:02:23.433Z,97123.69
2022-07-25T22:04:50.305Z,97119.41
2022-07-25T22:07:16.990Z,97126.38
2022-07-25T22:09:43.842Z,97132.66
2022-07-25T22:12:10.546Z,97129.81
2022-07-25T22:14:38.101Z,97128.38
2022-07-25T22:17:05.920Z,97128.31
2022-07-25T22:19:33.109Z,97140.94
2022-07-25T22:22:00.026Z,97144.31
2022-07-25T22:24:27.025Z,97147.03
2022-07-25T22:26:53.756Z,97155.31
2022-07-25T22:29:20.427Z,97151.03
2022-07-25T22:31:47.311Z,97142.56
2022-07-25T22:34:14.059Z,97141.09
2022-07-25T22:36:41.046Z,97146.63
2022-07-25T22:39:08.417Z,97137.50
2022-07-25T22:41:35.453Z,97131.91
2022-07-25T22:44:02.199Z,97143.03
2022-07-25T22:46:29.971Z,97136.63
2022-07-25T22:48:58.171Z,97131.66
2022-07-25T22:51:25.481Z,97131.63
2022-07-25T22:53:52.692Z,97135.81
2022-07-25T22:56:19.569Z,97142.03
2022-07-25T22:58:49.272Z,97137.72
2022-07-25T23:01:17.742Z,97131.47
2022-07-25T23:03:45.009Z,97146.06
2022-07-25T23:06:11.953Z,97137.03
2022-07-25T23:08:38.819Z,97138.38
2022-07-25T23:11:06.193Z,97141.25
2022-07-25T23:13:33.751Z,97137.69
2022-07-25T23:16:00.567Z,97131.31
2022-07-25T23:18:28.635Z,97135.47
2022-07-25T23:20:55.309Z,97128.53
2022-07-25T23:23:22.196Z,97134.78
2022-07-25T23:25:48.843Z,97131.88
2022-07-25T23:28:15.575Z,97125.38
2022-07-25T23:30:42.273Z,97118.28
2022-07-25T23:33:09.162Z,97130.94
2022-07-25T23:35:36.185Z,97123.28
2022-07-25T23:38:03.383Z,97136.53
2022-07-25T23:40:30.411Z,97140.66
2022-07-25T23:42:57.082Z,97135.75
2022-07-25T23:45:26.975Z,97135.09
2022-07-25T23:47:55.522Z,97139.28
2022-07-25T23:50:22.719Z,97145.47
2022-07-25T23:52:49.473Z,97146.78
2022-07-25T23:55:16.202Z,97136.38
2022-07-25T23:57:43.175Z,97137.75
